sensor_id;sensor_type;location;lat;lon;timestamp;P1;durP1;ratioP1;P2;durP2;ratioP2
73823;SDS011;62154;54.914;73.444;2024-03-23T00:54:54;10.75;;;5.35;;
73823;SDS011;62154;54.914;73.444;2024-03-23T00:57:22;13.20;;;5.47;;
73823;SDS011;62154;54.914;73.444;2024-03-23T00:59:49;13.55;;;5.57;;
73823;SDS011;62154;54.914;73.444;2024-03-23T01:02:17;14.63;;;6.40;;
73823;SDS011;62154;54.914;73.444;2024-03-23T01:04:45;17.10;;;6.70;;
73823;SDS011;62154;54.914;73.444;2024-03-23T01:07:13;19.20;;;7.35;;
73823;SDS011;62154;54.914;73.444;2024-03-23T01:09:40;15.93;;;5.30;;
73823;SDS011;62154;54.914;73.444;2024-03-23T01:12:08;14.45;;;6.40;;
73823;SDS011;62154;54.914;73.444;2024-03-23T01:14:35;13.43;;;5.50;;
73823;SDS011;62154;54.914;73.444;2024-03-23T01:17:06;16.95;;;5.78;;
73823;SDS011;62154;54.914;73.444;2024-03-23T01:19:34;14.45;;;5.47;;
73823;SDS011;62154;54.914;73.444;2024-03-23T01:22:01;13.88;;;5.40;;
73823;SDS011;62154;54.914;73.444;2024-03-23T01:24:28;12.52;;;4.78;;
73823;SDS011;62154;54.914;73.444;2024-03-23T01:26:56;12.25;;;5.40;;
73823;SDS011;62154;54.914;73.444;2024-03-23T01:29:24;15.77;;;5.93;;
73823;SDS011;62154;54.914;73.444;2024-03-23T01:31:51;11.48;;;5.30;;
73823;SDS011;62154;54.914;73.444;2024-03-23T01:34:19;11.32;;;4.60;;
73823;SDS011;62154;54.914;73.444;2024-03-23T01:36:47;10.77;;;4.88;;
73823;SDS011;62154;54.914;73.444;2024-03-23T01:39:15;10.02;;;4.95;;
73823;SDS011;62154;54.914;73.444;2024-03-23T01:41:43;10.55;;;4.60;;
73823;SDS011;62154;54.914;73.444;2024-03-23T01:44:11;11.40;;;4.63;;
73823;SDS011;62154;54.914;73.444;2024-03-23T01:46:40;15.45;;;5.57;;
73823;SDS011;62154;54.914;73.444;2024-03-23T01:49:08;18.45;;;7.80;;
73823;SDS011;62154;54.914;73.444;2024-03-23T01:51:36;16.05;;;7.05;;
73823;SDS011;62154;54.914;73.444;2024-03-23T01:54:04;13.77;;;5.70;;
73823;SDS011;62154;54.914;73.444;2024-03-23T01:56:34;11.05;;;4.95;;
73823;SDS011;62154;54.914;73.444;2024-03-23T01:59:07;11.77;;;5.35;;
73823;SDS011;62154;54.914;73.444;2024-03-23T02:01:35;14.23;;;5.68;;
73823;SDS011;62154;54.914;73.444;2024-03-23T02:04:03;15.55;;;4.85;;
73823;SDS011;62154;54.914;73.444;2024-03-23T02:06:30;14.52;;;4.90;;
73823;SDS011;62154;54.914;73.444;2024-03-23T02:08:58;12.18;;;4.32;;
73823;SDS011;62154;54.914;73.444;2024-03-23T02:11:29;15.81;;;4.91;;
73823;SDS011;62154;54.914;73.444;2024-03-23T02:13:57;12.70;;;3.85;;
73823;SDS011;62154;54.914;73.444;2024-03-23T02:16:24;13.68;;;4.75;;
73823;SDS011;62154;54.914;73.444;2024-03-23T02:18:52;11.32;;;4.57;;
73823;SDS011;62154;54.914;73.444;2024-03-23T02:21:19;14.75;;;6.05;;
73823;SDS011;62154;54.914;73.444;2024-03-23T02:23:47;19.23;;;6.57;;
73823;SDS011;62154;54.914;73.444;2024-03-23T02:26:14;34.75;;;11.48;;
73823;SDS011;62154;54.914;73.444;2024-03-23T02:28:43;47.63;;;16.85;;
73823;SDS011;62154;54.914;73.444;2024-03-23T02:31:13;23.65;;;8.73;;
73823;SDS011;62154;54.914;73.444;2024-03-23T02:33:42;14.95;;;5.65;;
73823;SDS011;62154;54.914;73.444;2024-03-23T02:36:21;16.35;;;5.63;;
73823;SDS011;62154;54.914;73.444;2024-03-23T02:38:48;43.05;;;15.90;;
73823;SDS011;62154;54.914;73.444;2024-03-23T02:41:19;154.23;;;52.13;;
73823;SDS011;62154;54.914;73.444;2024-03-23T02:43:50;20.02;;;8.55;;
73823;SDS011;62154;54.914;73.444;2024-03-23T02:46:18;32.38;;;11.85;;
73823;SDS011;62154;54.914;73.444;2024-03-23T02:48:48;56.00;;;22.50;;
73823;SDS011;62154;54.914;73.444;2024-03-23T02:51:16;22.20;;;9.52;;
73823;SDS011;62154;54.914;73.444;2024-03-23T02:53:43;20.65;;;9.02;;
73823;SDS011;62154;54.914;73.444;2024-03-23T02:56:11;29.00;;;11.40;;
73823;SDS011;62154;54.914;73.444;2024-03-23T02:58:42;20.98;;;8.23;;
73823;SDS011;62154;54.914;73.444;2024-03-23T03:01:10;147.27;;;53.50;;
73823;SDS011;62154;54.914;73.444;2024-03-23T03:03:37;15.77;;;7.13;;
73823;SDS011;62154;54.914;73.444;2024-03-23T03:06:05;97.93;;;35.30;;
73823;SDS011;62154;54.914;73.444;2024-03-23T03:08:32;48.88;;;18.63;;
73823;SDS011;62154;54.914;73.444;2024-03-23T03:11:00;25.08;;;10.23;;
73823;SDS011;62154;54.914;73.444;2024-03-23T03:13:28;46.67;;;16.45;;
73823;SDS011;62154;54.914;73.444;2024-03-23T03:15:56;53.92;;;19.55;;
73823;SDS011;62154;54.914;73.444;2024-03-23T03:18:24;55.20;;;17.88;;
73823;SDS011;62154;54.914;73.444;2024-03-23T03:20:54;97.35;;;33.72;;
73823;SDS011;62154;54.914;73.444;2024-03-23T03:23:21;151.20;;;53.25;;
73823;SDS011;62154;54.914;73.444;2024-03-23T03:25:49;81.32;;;31.83;;
73823;SDS011;62154;54.914;73.444;2024-03-23T03:28:16;31.83;;;10.00;;
73823;SDS011;62154;54.914;73.444;2024-03-23T03:30:44;14.70;;;6.97;;
73823;SDS011;62154;54.914;73.444;2024-03-23T03:33:12;21.98;;;10.95;;
73823;SDS011;62154;54.914;73.444;2024-03-23T03:35:40;25.45;;;10.38;;
73823;SDS011;62154;54.914;73.444;2024-03-23T03:38:07;27.38;;;10.98;;
73823;SDS011;62154;54.914;73.444;2024-03-23T03:40:35;19.63;;;7.95;;
73823;SDS011;62154;54.914;73.444;2024-03-23T03:43:02;14.73;;;6.47;;
73823;SDS011;62154;54.914;73.444;2024-03-23T03:45:30;27.30;;;10.23;;
73823;SDS011;62154;54.914;73.444;2024-03-23T03:47:58;17.40;;;5.43;;
73823;SDS011;62154;54.914;73.444;2024-03-23T03:50:25;16.08;;;5.28;;
73823;SDS011;62154;54.914;73.444;2024-03-23T03:52:53;15.50;;;5.38;;
73823;SDS011;62154;54.914;73.444;2024-03-23T03:55:20;16.33;;;4.70;;
73823;SDS011;62154;54.914;73.444;2024-03-23T03:57:48;11.88;;;5.03;;
73823;SDS011;62154;54.914;73.444;2024-03-23T04:00:16;17.52;;;5.53;;
73823;SDS011;62154;54.914;73.444;2024-03-23T04:02:43;14.77;;;5.55;;
73823;SDS011;62154;54.914;73.444;2024-03-23T04:05:11;16.80;;;5.15;;
73823;SDS011;62154;54.914;73.444;2024-03-23T04:07:39;18.13;;;8.68;;
73823;SDS011;62154;54.914;73.444;2024-03-23T04:10:06;15.77;;;5.55;;
73823;SDS011;62154;54.914;73.444;2024-03-23T04:12:34;14.60;;;5.40;;
73823;SDS011;62154;54.914;73.444;2024-03-23T04:15:14;28.33;;;11.63;;
73823;SDS011;62154;54.914;73.444;2024-03-23T04:17:42;13.75;;;5.13;;
73823;SDS011;62154;54.914;73.444;2024-03-23T04:20:09;15.55;;;6.03;;
73823;SDS011;62154;54.914;73.444;2024-03-23T04:22:38;22.73;;;7.53;;
73823;SDS011;62154;54.914;73.444;2024-03-23T04:25:05;9.75;;;4.22;;
73823;SDS011;62154;54.914;73.444;2024-03-23T04:27:33;11.48;;;4.25;;
73823;SDS011;62154;54.914;73.444;2024-03-23T04:30:01;11.23;;;4.50;;
73823;SDS011;62154;54.914;73.444;2024-03-23T04:32:30;12.80;;;5.63;;
73823;SDS011;62154;54.914;73.444;2024-03-23T04:34:58;17.85;;;5.95;;
73823;SDS011;62154;54.914;73.444;2024-03-23T04:37:25;19.77;;;8.40;;
73823;SDS011;62154;54.914;73.444;2024-03-23T04:39:53;17.30;;;7.53;;
73823;SDS011;62154;54.914;73.444;2024-03-23T04:42:20;16.90;;;7.32;;
73823;SDS011;62154;54.914;73.444;2024-03-23T04:44:48;15.80;;;6.70;;
73823;SDS011;62154;54.914;73.444;2024-03-23T04:47:16;18.23;;;7.85;;
73823;SDS011;62154;54.914;73.444;2024-03-23T04:49:43;13.90;;;6.20;;
73823;SDS011;62154;54.914;73.444;2024-03-23T04:52:11;19.48;;;6.65;;
73823;SDS011;62154;54.914;73.444;2024-03-23T04:54:40;16.48;;;7.05;;
73823;SDS011;62154;54.914;73.444;2024-03-23T04:57:07;14.25;;;5.55;;
73823;SDS011;62154;54.914;73.444;2024-03-23T04:59:35;11.82;;;6.45;;
73823;SDS011;62154;54.914;73.444;2024-03-23T05:02:02;12.35;;;5.13;;
73823;SDS011;62154;54.914;73.444;2024-03-23T05:04:30;11.82;;;4.75;;
73823;SDS011;62154;54.914;73.444;2024-03-23T05:06:58;13.50;;;4.95;;
73823;SDS011;62154;54.914;73.444;2024-03-23T05:09:26;8.38;;;4.15;;
73823;SDS011;62154;54.914;73.444;2024-03-23T05:12:08;10.25;;;4.00;;
73823;SDS011;62154;54.914;73.444;2024-03-23T05:14:35;13.48;;;4.80;;
73823;SDS011;62154;54.914;73.444;2024-03-23T05:17:03;13.30;;;5.60;;
73823;SDS011;62154;54.914;73.444;2024-03-23T05:19:31;18.85;;;6.97;;
73823;SDS011;62154;54.914;73.444;2024-03-23T05:21:58;20.58;;;7.78;;
73823;SDS011;62154;54.914;73.444;2024-03-23T05:24:26;21.27;;;9.02;;
73823;SDS011;62154;54.914;73.444;2024-03-23T05:26:53;32.03;;;12.95;;
73823;SDS011;62154;54.914;73.444;2024-03-23T05:29:21;24.00;;;8.68;;
73823;SDS011;62154;54.914;73.444;2024-03-23T05:31:51;30.40;;;9.20;;
73823;SDS011;62154;54.914;73.444;2024-03-23T05:34:19;14.25;;;6.93;;
73823;SDS011;62154;54.914;73.444;2024-03-23T05:36:47;18.98;;;6.80;;
73823;SDS011;62154;54.914;73.444;2024-03-23T05:39:16;22.98;;;9.25;;
73823;SDS011;62154;54.914;73.444;2024-03-23T05:41:43;18.45;;;6.32;;
73823;SDS011;62154;54.914;73.444;2024-03-23T05:44:11;11.63;;;4.85;;
73823;SDS011;62154;54.914;73.444;2024-03-23T05:46:38;13.00;;;5.90;;
73823;SDS011;62154;54.914;73.444;2024-03-23T05:49:06;22.55;;;10.52;;
73823;SDS011;62154;54.914;73.444;2024-03-23T05:51:33;21.73;;;12.27;;
73823;SDS011;62154;54.914;73.444;2024-03-23T05:54:03;20.42;;;7.88;;
73823;SDS011;62154;54.914;73.444;2024-03-23T05:56:30;15.27;;;6.30;;
73823;SDS011;62154;54.914;73.444;2024-03-23T05:58:58;18.05;;;8.43;;
73823;SDS011;62154;54.914;73.444;2024-03-23T06:01:25;16.63;;;6.90;;
73823;SDS011;62154;54.914;73.444;2024-03-23T06:03:55;17.08;;;6.80;;
73823;SDS011;62154;54.914;73.444;2024-03-23T06:06:22;12.23;;;5.80;;
73823;SDS011;62154;54.914;73.444;2024-03-23T06:08:50;18.40;;;10.23;;
73823;SDS011;62154;54.914;73.444;2024-03-23T06:11:18;17.58;;;8.02;;
73823;SDS011;62154;54.914;73.444;2024-03-23T06:13:45;24.47;;;17.20;;
73823;SDS011;62154;54.914;73.444;2024-03-23T06:16:13;13.18;;;5.95;;
73823;SDS011;62154;54.914;73.444;2024-03-23T06:18:40;13.93;;;7.97;;
73823;SDS011;62154;54.914;73.444;2024-03-23T06:21:12;15.50;;;6.20;;
73823;SDS011;62154;54.914;73.444;2024-03-23T06:23:41;12.54;;;5.59;;
73823;SDS011;62154;54.914;73.444;2024-03-23T06:26:09;14.50;;;6.80;;
73823;SDS011;62154;54.914;73.444;2024-03-23T06:28:36;18.52;;;6.50;;
73823;SDS011;62154;54.914;73.444;2024-03-23T06:31:08;19.73;;;7.68;;
73823;SDS011;62154;54.914;73.444;2024-03-23T06:33:36;13.50;;;5.40;;
73823;SDS011;62154;54.914;73.444;2024-03-23T06:36:05;20.98;;;8.02;;
73823;SDS011;62154;54.914;73.444;2024-03-23T06:38:33;16.30;;;6.93;;
73823;SDS011;62154;54.914;73.444;2024-03-23T06:41:05;18.27;;;7.97;;
73823;SDS011;62154;54.914;73.444;2024-03-23T06:43:32;21.75;;;7.57;;
73823;SDS011;62154;54.914;73.444;2024-03-23T06:46:00;17.65;;;9.45;;
73823;SDS011;62154;54.914;73.444;2024-03-23T06:48:41;12.70;;;5.72;;
73823;SDS011;62154;54.914;73.444;2024-03-23T06:51:09;16.20;;;6.35;;
73823;SDS011;62154;54.914;73.444;2024-03-23T06:53:36;17.98;;;4.90;;
73823;SDS011;62154;54.914;73.444;2024-03-23T06:56:07;83.38;;;22.35;;
73823;SDS011;62154;54.914;73.444;2024-03-23T06:58:34;13.10;;;5.25;;
73823;SDS011;62154;54.914;73.444;2024-03-23T07:01:02;34.85;;;11.25;;
73823;SDS011;62154;54.914;73.444;2024-03-23T07:03:29;25.80;;;9.88;;
73823;SDS011;62154;54.914;73.444;2024-03-23T07:05:57;10.65;;;4.28;;
73823;SDS011;62154;54.914;73.444;2024-03-23T07:08:25;48.78;;;13.60;;
73823;SDS011;62154;54.914;73.444;2024-03-23T07:10:53;20.65;;;5.20;;
73823;SDS011;62154;54.914;73.444;2024-03-23T07:13:20;89.03;;;21.95;;
73823;SDS011;62154;54.914;73.444;2024-03-23T07:15:53;25.85;;;9.00;;
73823;SDS011;62154;54.914;73.444;2024-03-23T07:18:26;44.45;;;11.55;;
73823;SDS011;62154;54.914;73.444;2024-03-23T07:21:08;65.63;;;16.13;;
73823;SDS011;62154;54.914;73.444;2024-03-23T07:23:36;13.30;;;5.32;;
73823;SDS011;62154;54.914;73.444;2024-03-23T07:26:04;11.43;;;4.22;;
73823;SDS011;62154;54.914;73.444;2024-03-23T07:28:32;67.28;;;15.57;;
73823;SDS011;62154;54.914;73.444;2024-03-23T07:31:04;42.65;;;11.07;;
73823;SDS011;62154;54.914;73.444;2024-03-23T07:33:33;36.15;;;10.32;;
73823;SDS011;62154;54.914;73.444;2024-03-23T07:36:01;19.30;;;6.75;;
73823;SDS011;62154;54.914;73.444;2024-03-23T07:38:29;79.07;;;17.77;;
73823;SDS011;62154;54.914;73.444;2024-03-23T07:41:10;21.55;;;6.88;;
73823;SDS011;62154;54.914;73.444;2024-03-23T07:43:38;92.47;;;20.65;;
73823;SDS011;62154;54.914;73.444;2024-03-23T07:46:07;66.03;;;16.27;;
73823;SDS011;62154;54.914;73.444;2024-03-23T07:48:34;25.10;;;7.78;;
73823;SDS011;62154;54.914;73.444;2024-03-23T07:51:03;21.88;;;10.10;;
73823;SDS011;62154;54.914;73.444;2024-03-23T07:53:32;10.48;;;4.25;;
73823;SDS011;62154;54.914;73.444;2024-03-23T07:56:05;16.20;;;7.25;;
73823;SDS011;62154;54.914;73.444;2024-03-23T07:58:34;25.33;;;11.00;;
73823;SDS011;62154;54.914;73.444;2024-03-23T08:01:06;11.98;;;5.25;;
73823;SDS011;62154;54.914;73.444;2024-03-23T08:03:44;29.98;;;12.25;;
73823;SDS011;62154;54.914;73.444;2024-03-23T08:06:14;17.58;;;7.18;;
73823;SDS011;62154;54.914;73.444;2024-03-23T08:08:43;9.18;;;5.80;;
73823;SDS011;62154;54.914;73.444;2024-03-23T08:11:11;11.60;;;5.90;;
73823;SDS011;62154;54.914;73.444;2024-03-23T08:13:41;16.02;;;6.28;;
73823;SDS011;62154;54.914;73.444;2024-03-23T08:16:09;30.10;;;15.23;;
73823;SDS011;62154;54.914;73.444;2024-03-23T08:18:36;13.85;;;6.32;;
73823;SDS011;62154;54.914;73.444;2024-03-23T08:21:04;9.07;;;4.32;;
73823;SDS011;62154;54.914;73.444;2024-03-23T08:23:33;11.40;;;3.53;;
73823;SDS011;62154;54.914;73.444;2024-03-23T08:28:36;29.27;;;11.23;;
73823;SDS011;62154;54.914;73.444;2024-03-23T08:31:08;20.05;;;9.45;;
73823;SDS011;62154;54.914;73.444;2024-03-23T08:33:36;17.98;;;7.75;;
73823;SDS011;62154;54.914;73.444;2024-03-23T08:36:05;9.95;;;4.70;;
73823;SDS011;62154;54.914;73.444;2024-03-23T08:38:34;7.53;;;3.97;;
73823;SDS011;62154;54.914;73.444;2024-03-23T08:41:02;30.13;;;11.85;;
73823;SDS011;62154;54.914;73.444;2024-03-23T08:43:38;15.25;;;7.32;;
73823;SDS011;62154;54.914;73.444;2024-03-23T08:48:49;10.93;;;5.97;;
73823;SDS011;62154;54.914;73.444;2024-03-23T08:51:19;17.80;;;5.95;;
73823;SDS011;62154;54.914;73.444;2024-03-23T08:53:46;36.88;;;12.73;;
73823;SDS011;62154;54.914;73.444;2024-03-23T08:56:13;21.38;;;7.97;;
73823;SDS011;62154;54.914;73.444;2024-03-23T08:58:42;13.48;;;4.90;;
73823;SDS011;62154;54.914;73.444;2024-03-23T09:01:11;65.75;;;21.52;;
73823;SDS011;62154;54.914;73.444;2024-03-23T09:03:42;29.27;;;10.93;;
73823;SDS011;62154;54.914;73.444;2024-03-23T09:06:10;40.28;;;17.08;;
73823;SDS011;62154;54.914;73.444;2024-03-23T09:08:39;20.33;;;9.73;;
73823;SDS011;62154;54.914;73.444;2024-03-23T09:11:12;12.80;;;6.35;;
73823;SDS011;62154;54.914;73.444;2024-03-23T09:13:40;14.93;;;8.50;;
73823;SDS011;62154;54.914;73.444;2024-03-23T09:16:10;15.40;;;4.80;;
73823;SDS011;62154;54.914;73.444;2024-03-23T09:18:38;9.25;;;4.68;;
73823;SDS011;62154;54.914;73.444;2024-03-23T09:21:11;14.50;;;7.22;;
73823;SDS011;62154;54.914;73.444;2024-03-23T09:23:43;38.90;;;18.50;;
73823;SDS011;62154;54.914;73.444;2024-03-23T09:26:11;11.98;;;6.32;;
73823;SDS011;62154;54.914;73.444;2024-03-23T09:28:38;10.15;;;6.28;;
73823;SDS011;62154;54.914;73.444;2024-03-23T09:31:06;12.55;;;5.10;;
73823;SDS011;62154;54.914;73.444;2024-03-23T09:33:35;11.15;;;5.32;;
73823;SDS011;62154;54.914;73.444;2024-03-23T09:36:03;10.77;;;4.13;;
73823;SDS011;62154;54.914;73.444;2024-03-23T09:38:33;22.08;;;9.10;;
73823;SDS011;62154;54.914;73.444;2024-03-23T09:41:06;28.15;;;14.02;;
73823;SDS011;62154;54.914;73.444;2024-03-23T09:43:34;33.33;;;18.90;;
73823;SDS011;62154;54.914;73.444;2024-03-23T09:46:02;19.48;;;12.05;;
73823;SDS011;62154;54.914;73.444;2024-03-23T09:48:32;13.40;;;5.72;;
73823;SDS011;62154;54.914;73.444;2024-03-23T09:51:03;21.23;;;12.00;;
73823;SDS011;62154;54.914;73.444;2024-03-23T09:53:31;9.95;;;4.95;;
73823;SDS011;62154;54.914;73.444;2024-03-23T09:55:59;32.40;;;17.07;;
73823;SDS011;62154;54.914;73.444;2024-03-23T09:58:28;26.13;;;12.77;;
73823;SDS011;62154;54.914;73.444;2024-03-23T10:01:13;17.05;;;9.27;;
73823;SDS011;62154;54.914;73.444;2024-03-23T10:03:45;30.80;;;15.43;;
73823;SDS011;62154;54.914;73.444;2024-03-23T10:06:15;42.05;;;18.15;;
73823;SDS011;62154;54.914;73.444;2024-03-23T10:08:51;23.13;;;7.72;;
73823;SDS011;62154;54.914;73.444;2024-03-23T10:11:21;31.85;;;9.40;;
73823;SDS011;62154;54.914;73.444;2024-03-23T10:13:48;25.00;;;10.73;;
73823;SDS011;62154;54.914;73.444;2024-03-23T10:16:21;35.03;;;17.27;;
73823;SDS011;62154;54.914;73.444;2024-03-23T10:18:50;18.77;;;8.52;;
73823;SDS011;62154;54.914;73.444;2024-03-23T10:21:22;12.15;;;3.88;;
73823;SDS011;62154;54.914;73.444;2024-03-23T10:23:52;8.13;;;3.40;;
73823;SDS011;62154;54.914;73.444;2024-03-23T10:26:20;10.70;;;4.25;;
73823;SDS011;62154;54.914;73.444;2024-03-23T10:29:00;13.18;;;4.32;;
73823;SDS011;62154;54.914;73.444;2024-03-23T10:31:32;9.77;;;3.60;;
73823;SDS011;62154;54.914;73.444;2024-03-23T10:34:03;11.95;;;3.70;;
73823;SDS011;62154;54.914;73.444;2024-03-23T10:36:30;9.68;;;4.05;;
73823;SDS011;62154;54.914;73.444;2024-03-23T10:38:58;6.05;;;2.85;;
73823;SDS011;62154;54.914;73.444;2024-03-23T10:41:29;6.03;;;3.25;;
73823;SDS011;62154;54.914;73.444;2024-03-23T10:43:58;7.10;;;3.40;;
73823;SDS011;62154;54.914;73.444;2024-03-23T10:46:28;6.32;;;2.92;;
73823;SDS011;62154;54.914;73.444;2024-03-23T10:48:56;8.90;;;4.00;;
73823;SDS011;62154;54.914;73.444;2024-03-23T10:51:24;10.38;;;5.38;;
73823;SDS011;62154;54.914;73.444;2024-03-23T10:53:52;10.75;;;4.40;;
73823;SDS011;62154;54.914;73.444;2024-03-23T10:56:22;6.10;;;3.04;;
73823;SDS011;62154;54.914;73.444;2024-03-23T10:58:50;9.70;;;3.35;;
73823;SDS011;62154;54.914;73.444;2024-03-23T11:01:19;11.13;;;5.07;;
73823;SDS011;62154;54.914;73.444;2024-03-23T11:03:47;8.77;;;3.80;;
73823;SDS011;62154;54.914;73.444;2024-03-23T11:09:21;15.32;;;6.25;;
73823;SDS011;62154;54.914;73.444;2024-03-23T11:17:20;21.20;;;10.55;;
73823;SDS011;62154;54.914;73.444;2024-03-23T11:19:55;12.18;;;3.72;;
73823;SDS011;62154;54.914;73.444;2024-03-23T11:22:45;8.52;;;6.05;;
73823;SDS011;62154;54.914;73.444;2024-03-23T11:25:23;30.42;;;11.45;;
73823;SDS011;62154;54.914;73.444;2024-03-23T11:27:51;16.70;;;7.97;;
73823;SDS011;62154;54.914;73.444;2024-03-23T11:30:21;10.85;;;4.40;;
73823;SDS011;62154;54.914;73.444;2024-03-23T11:32:51;11.38;;;4.60;;
73823;SDS011;62154;54.914;73.444;2024-03-23T11:35:27;27.23;;;10.98;;
73823;SDS011;62154;54.914;73.444;2024-03-23T11:40:29;14.68;;;5.75;;
73823;SDS011;62154;54.914;73.444;2024-03-23T11:43:02;10.63;;;6.65;;
73823;SDS011;62154;54.914;73.444;2024-03-23T11:45:34;7.05;;;3.20;;
73823;SDS011;62154;54.914;73.444;2024-03-23T11:48:06;9.07;;;5.50;;
73823;SDS011;62154;54.914;73.444;2024-03-23T11:50:37;11.77;;;6.13;;
73823;SDS011;62154;54.914;73.444;2024-03-23T11:53:12;11.00;;;4.15;;
73823;SDS011;62154;54.914;73.444;2024-03-23T11:56:00;12.70;;;5.85;;
73823;SDS011;62154;54.914;73.444;2024-03-23T11:58:30;11.30;;;5.25;;
73823;SDS011;62154;54.914;73.444;2024-03-23T12:00:58;11.38;;;5.32;;
73823;SDS011;62154;54.914;73.444;2024-03-23T12:03:33;10.40;;;4.68;;
73823;SDS011;62154;54.914;73.444;2024-03-23T12:06:05;15.20;;;6.85;;
73823;SDS011;62154;54.914;73.444;2024-03-23T12:08:34;18.77;;;6.60;;
73823;SDS011;62154;54.914;73.444;2024-03-23T12:11:06;11.00;;;4.65;;
73823;SDS011;62154;54.914;73.444;2024-03-23T12:14:01;23.38;;;9.63;;
73823;SDS011;62154;54.914;73.444;2024-03-23T12:16:29;12.80;;;6.85;;
73823;SDS011;62154;54.914;73.444;2024-03-23T12:19:16;7.72;;;3.80;;
73823;SDS011;62154;54.914;73.444;2024-03-23T12:21:44;27.83;;;11.82;;
73823;SDS011;62154;54.914;73.444;2024-03-23T12:24:11;16.75;;;6.50;;
73823;SDS011;62154;54.914;73.444;2024-03-23T12:26:41;24.58;;;13.65;;
73823;SDS011;62154;54.914;73.444;2024-03-23T12:29:21;11.75;;;6.63;;
73823;SDS011;62154;54.914;73.444;2024-03-23T12:31:49;13.18;;;5.30;;
73823;SDS011;62154;54.914;73.444;2024-03-23T12:34:16;9.38;;;4.10;;
73823;SDS011;62154;54.914;73.444;2024-03-23T12:36:48;12.80;;;5.20;;
73823;SDS011;62154;54.914;73.444;2024-03-23T12:39:16;13.18;;;4.43;;
73823;SDS011;62154;54.914;73.444;2024-03-23T12:41:43;12.40;;;6.13;;
73823;SDS011;62154;54.914;73.444;2024-03-23T12:44:16;10.80;;;4.35;;
73823;SDS011;62154;54.914;73.444;2024-03-23T12:46:49;27.00;;;10.82;;
73823;SDS011;62154;54.914;73.444;2024-03-23T12:49:29;17.60;;;9.13;;
73823;SDS011;62154;54.914;73.444;2024-03-23T12:52:00;12.13;;;4.45;;
73823;SDS011;62154;54.914;73.444;2024-03-23T12:54:29;12.18;;;4.40;;
73823;SDS011;62154;54.914;73.444;2024-03-23T12:57:16;17.90;;;6.00;;
73823;SDS011;62154;54.914;73.444;2024-03-23T12:59:43;13.88;;;5.57;;
73823;SDS011;62154;54.914;73.444;2024-03-23T13:02:20;16.27;;;7.15;;
73823;SDS011;62154;54.914;73.444;2024-03-23T13:04:50;21.77;;;7.78;;
73823;SDS011;62154;54.914;73.444;2024-03-23T13:07:25;13.50;;;5.95;;
73823;SDS011;62154;54.914;73.444;2024-03-23T13:10:01;11.40;;;4.90;;
73823;SDS011;62154;54.914;73.444;2024-03-23T13:12:42;20.77;;;8.20;;
73823;SDS011;62154;54.914;73.444;2024-03-23T13:15:10;59.95;;;25.45;;
73823;SDS011;62154;54.914;73.444;2024-03-23T13:17:38;39.55;;;18.02;;
73823;SDS011;62154;54.914;73.444;2024-03-23T13:20:05;33.28;;;15.50;;
73823;SDS011;62154;54.914;73.444;2024-03-23T13:22:40;51.47;;;23.70;;
73823;SDS011;62154;54.914;73.444;2024-03-23T13:25:12;83.88;;;35.00;;
73823;SDS011;62154;54.914;73.444;2024-03-23T13:27:40;33.53;;;14.15;;
73823;SDS011;62154;54.914;73.444;2024-03-23T13:30:08;56.65;;;26.35;;
73823;SDS011;62154;54.914;73.444;2024-03-23T13:32:36;50.30;;;24.25;;
73823;SDS011;62154;54.914;73.444;2024-03-23T13:35:04;50.97;;;24.30;;
73823;SDS011;62154;54.914;73.444;2024-03-23T13:37:34;42.83;;;22.70;;
73823;SDS011;62154;54.914;73.444;2024-03-23T13:40:06;70.80;;;34.42;;
73823;SDS011;62154;54.914;73.444;2024-03-23T13:42:34;47.00;;;25.13;;
73823;SDS011;62154;54.914;73.444;2024-03-23T13:45:02;39.38;;;20.30;;
73823;SDS011;62154;54.914;73.444;2024-03-23T13:47:30;23.30;;;12.60;;
73823;SDS011;62154;54.914;73.444;2024-03-23T13:49:58;18.15;;;10.07;;
73823;SDS011;62154;54.914;73.444;2024-03-23T13:52:30;22.02;;;12.35;;
73823;SDS011;62154;54.914;73.444;2024-03-23T13:54:58;17.60;;;7.95;;
73823;SDS011;62154;54.914;73.444;2024-03-23T13:57:26;14.55;;;6.40;;
73823;SDS011;62154;54.914;73.444;2024-03-23T13:59:55;18.92;;;6.68;;
73823;SDS011;62154;54.914;73.444;2024-03-23T14:02:22;13.75;;;5.93;;
73823;SDS011;62154;54.914;73.444;2024-03-23T14:04:50;14.15;;;6.05;;
73823;SDS011;62154;54.914;73.444;2024-03-23T14:07:18;12.07;;;6.43;;
73823;SDS011;62154;54.914;73.444;2024-03-23T14:09:46;15.57;;;5.75;;
73823;SDS011;62154;54.914;73.444;2024-03-23T14:12:14;14.82;;;6.63;;
73823;SDS011;62154;54.914;73.444;2024-03-23T14:14:41;14.95;;;6.68;;
73823;SDS011;62154;54.914;73.444;2024-03-23T14:17:09;14.15;;;5.40;;
73823;SDS011;62154;54.914;73.444;2024-03-23T14:19:38;38.55;;;14.00;;
73823;SDS011;62154;54.914;73.444;2024-03-23T14:22:06;42.65;;;15.75;;
73823;SDS011;62154;54.914;73.444;2024-03-23T14:24:33;125.78;;;49.00;;
73823;SDS011;62154;54.914;73.444;2024-03-23T14:27:01;149.18;;;52.13;;
73823;SDS011;62154;54.914;73.444;2024-03-23T14:29:32;257.17;;;90.53;;
73823;SDS011;62154;54.914;73.444;2024-03-23T14:32:14;160.50;;;63.30;;
73823;SDS011;62154;54.914;73.444;2024-03-23T14:34:42;292.55;;;102.20;;
73823;SDS011;62154;54.914;73.444;2024-03-23T14:37:09;345.30;;;129.60;;
73823;SDS011;62154;54.914;73.444;2024-03-23T14:39:37;189.18;;;69.88;;
73823;SDS011;62154;54.914;73.444;2024-03-23T14:42:07;384.10;;;122.47;;
73823;SDS011;62154;54.914;73.444;2024-03-23T14:44:37;111.88;;;49.75;;
73823;SDS011;62154;54.914;73.444;2024-03-23T14:47:06;106.70;;;53.28;;
73823;SDS011;62154;54.914;73.444;2024-03-23T14:49:35;128.25;;;66.57;;
73823;SDS011;62154;54.914;73.444;2024-03-23T14:52:04;98.10;;;54.67;;
73823;SDS011;62154;54.914;73.444;2024-03-23T14:54:38;62.10;;;34.35;;
73823;SDS011;62154;54.914;73.444;2024-03-23T14:57:07;56.00;;;23.88;;
73823;SDS011;62154;54.914;73.444;2024-03-23T14:59:38;112.63;;;39.00;;
73823;SDS011;62154;54.914;73.444;2024-03-23T15:02:07;30.02;;;13.57;;
73823;SDS011;62154;54.914;73.444;2024-03-23T15:04:35;33.78;;;16.95;;
73823;SDS011;62154;54.914;73.444;2024-03-23T15:07:05;30.52;;;13.60;;
73823;SDS011;62154;54.914;73.444;2024-03-23T15:09:33;118.90;;;50.03;;
73823;SDS011;62154;54.914;73.444;2024-03-23T15:12:00;42.00;;;17.02;;
73823;SDS011;62154;54.914;73.444;2024-03-23T15:14:28;60.25;;;21.70;;
73823;SDS011;62154;54.914;73.444;2024-03-23T15:16:55;34.88;;;14.27;;
73823;SDS011;62154;54.914;73.444;2024-03-23T15:19:24;37.22;;;13.88;;
73823;SDS011;62154;54.914;73.444;2024-03-23T15:21:53;33.25;;;13.10;;
73823;SDS011;62154;54.914;73.444;2024-03-23T15:24:20;29.40;;;12.23;;
73823;SDS011;62154;54.914;73.444;2024-03-23T15:26:48;32.20;;;12.95;;
73823;SDS011;62154;54.914;73.444;2024-03-23T15:29:16;25.08;;;11.23;;
73823;SDS011;62154;54.914;73.444;2024-03-23T15:31:44;28.30;;;11.40;;
73823;SDS011;62154;54.914;73.444;2024-03-23T15:34:12;37.15;;;15.05;;
73823;SDS011;62154;54.914;73.444;2024-03-23T15:36:40;63.42;;;23.00;;
73823;SDS011;62154;54.914;73.444;2024-03-23T15:39:12;51.06;;;19.93;;
73823;SDS011;62154;54.914;73.444;2024-03-23T15:41:41;45.05;;;13.52;;